N533BR KENW-KMFD
Flight info
| Callsign | N533BR |
|---|---|
| Flight time | 2h 11m |
| Altitude | 5000 |
| Route | OBK CGT FWA FBC |
| Aircraft | EC30/L-G/C |
Departure
| Time | 2026-04-12 03:07 |
|---|---|
| Airport | Kenosha Regional Airport (KENW) |
Arrival
| Time | 2026-04-12 05:19 |
|---|---|
| Airport | Mansfield Lahm Regional Airport (KMFD) |
| Time | Latitude | Longitude | Altitude | Speed | Heading |
|---|---|---|---|---|---|
| 2026-04-12 02:54 | 42.59492 | -87.92985 | 732 ft | 0 kts | 153° |
| 2026-04-12 03:03 | 42.59493 | -87.92984 | 732 ft | 0 kts | 158° |
| 2026-04-12 03:03 | 42.59493 | -87.92985 | 732 ft | 0 kts | 146° |
| 2026-04-12 03:04 | 42.59492 | -87.92985 | 732 ft | 0 kts | 153° |
| 2026-04-12 03:06 | 42.59499 | -87.92986 | 777 ft | 6 kts | 148° |
| 2026-04-12 03:06 | 42.59431 | -87.93003 | 1019 ft | 31 kts | 172° |
| 2026-04-12 03:06 | 42.59018 | -87.92969 | 1141 ft | 81 kts | 192° |
| 2026-04-12 03:07 | 42.58424 | -87.92995 | 1336 ft | 86 kts | 175° |
| 2026-04-12 03:07 | 42.57840 | -87.92992 | 1554 ft | 83 kts | 176° |
| 2026-04-12 03:07 | 42.57274 | -87.93046 | 1779 ft | 82 kts | 186° |
| 2026-04-12 03:07 | 42.56728 | -87.93186 | 1985 ft | 78 kts | 178° |
| 2026-04-12 03:08 | 42.56197 | -87.93212 | 2231 ft | 76 kts | 178° |
| 2026-04-12 03:08 | 42.55656 | -87.93231 | 2459 ft | 78 kts | 178° |
| 2026-04-12 03:08 | 42.55117 | -87.93257 | 2693 ft | 79 kts | 179° |
| 2026-04-12 03:08 | 42.54565 | -87.93282 | 2923 ft | 80 kts | 180° |
| 2026-04-12 03:09 | 42.54014 | -87.93310 | 3150 ft | 80 kts | 181° |
| 2026-04-12 03:09 | 42.53453 | -87.93341 | 3380 ft | 80 kts | 182° |
| 2026-04-12 03:09 | 42.52893 | -87.93372 | 3614 ft | 81 kts | 182° |
| 2026-04-12 03:09 | 42.52327 | -87.93402 | 3845 ft | 81 kts | 183° |
| 2026-04-12 03:10 | 42.51759 | -87.93433 | 4085 ft | 85 kts | 183° |
| 2026-04-12 03:10 | 42.51152 | -87.93465 | 4310 ft | 88 kts | 185° |
| 2026-04-12 03:10 | 42.50534 | -87.93500 | 4552 ft | 91 kts | 185° |
| 2026-04-12 03:10 | 42.49878 | -87.93533 | 4779 ft | 97 kts | 186° |
| 2026-04-12 03:11 | 42.49197 | -87.93571 | 5001 ft | 98 kts | 187° |
| 2026-04-12 03:11 | 42.48464 | -87.93618 | 4966 ft | 110 kts | 189° |
| 2026-04-12 03:11 | 42.47704 | -87.93675 | 4974 ft | 111 kts | 188° |
| 2026-04-12 03:11 | 42.46923 | -87.93729 | 4977 ft | 111 kts | 189° |
| 2026-04-12 03:12 | 42.46158 | -87.93780 | 4991 ft | 111 kts | 189° |
| 2026-04-12 03:12 | 42.45389 | -87.93826 | 4995 ft | 111 kts | 189° |
| 2026-04-12 03:12 | 42.44612 | -87.93874 | 4995 ft | 110 kts | 189° |
| 2026-04-12 03:12 | 42.43841 | -87.93920 | 4994 ft | 111 kts | 188° |
| 2026-04-12 03:13 | 42.43072 | -87.93964 | 4994 ft | 111 kts | 189° |
| 2026-04-12 03:13 | 42.42305 | -87.94009 | 4995 ft | 110 kts | 189° |
| 2026-04-12 03:13 | 42.41539 | -87.94054 | 4994 ft | 110 kts | 189° |
| 2026-04-12 03:13 | 42.40765 | -87.94099 | 4995 ft | 111 kts | 188° |
| 2026-04-12 03:14 | 42.39992 | -87.94142 | 4997 ft | 112 kts | 189° |
| 2026-04-12 03:14 | 42.39206 | -87.94187 | 4996 ft | 113 kts | 189° |
| 2026-04-12 03:14 | 42.38420 | -87.94232 | 5014 ft | 112 kts | 188° |
| 2026-04-12 03:14 | 42.37626 | -87.94276 | 5003 ft | 113 kts | 189° |
| 2026-04-12 03:15 | 42.36833 | -87.94322 | 5006 ft | 113 kts | 189° |
| 2026-04-12 03:15 | 42.36049 | -87.94369 | 5005 ft | 114 kts | 188° |
| 2026-04-12 03:15 | 42.35251 | -87.94414 | 5005 ft | 114 kts | 188° |
| 2026-04-12 03:15 | 42.34465 | -87.94460 | 5003 ft | 113 kts | 189° |
| 2026-04-12 03:16 | 42.33672 | -87.94505 | 5003 ft | 113 kts | 188° |
| 2026-04-12 03:16 | 42.32895 | -87.94550 | 5006 ft | 112 kts | 188° |
| 2026-04-12 03:16 | 42.32102 | -87.94595 | 5003 ft | 113 kts | 188° |
| 2026-04-12 03:16 | 42.31316 | -87.94640 | 5003 ft | 112 kts | 188° |
| 2026-04-12 03:17 | 42.30536 | -87.94685 | 4998 ft | 113 kts | 188° |
| 2026-04-12 03:17 | 42.29758 | -87.94730 | 4999 ft | 112 kts | 188° |
| 2026-04-12 03:17 | 42.28976 | -87.94775 | 4993 ft | 112 kts | 188° |
| 2026-04-12 03:17 | 42.28195 | -87.94820 | 4997 ft | 112 kts | 188° |
| 2026-04-12 03:18 | 42.27412 | -87.94863 | 4996 ft | 112 kts | 189° |
| 2026-04-12 03:18 | 42.26639 | -87.94908 | 4998 ft | 112 kts | 188° |
| 2026-04-12 03:18 | 42.25843 | -87.94952 | 4997 ft | 113 kts | 189° |
| 2026-04-12 03:18 | 42.25055 | -87.94998 | 4997 ft | 113 kts | 189° |
| 2026-04-12 03:19 | 42.24270 | -87.95044 | 4995 ft | 113 kts | 189° |
| 2026-04-12 03:19 | 42.23485 | -87.95089 | 4996 ft | 113 kts | 189° |
| 2026-04-12 03:19 | 42.22686 | -87.95136 | 4994 ft | 114 kts | 189° |
| 2026-04-12 03:19 | 42.21899 | -87.94982 | 4965 ft | 118 kts | 169° |
| 2026-04-12 03:20 | 42.21136 | -87.94598 | 4991 ft | 117 kts | 169° |
| 2026-04-12 03:20 | 42.20377 | -87.94199 | 4993 ft | 117 kts | 168° |
| 2026-04-12 03:20 | 42.19620 | -87.93798 | 4991 ft | 116 kts | 168° |
| 2026-04-12 03:20 | 42.18864 | -87.93395 | 4993 ft | 116 kts | 168° |
| 2026-04-12 03:21 | 42.18104 | -87.92987 | 4990 ft | 116 kts | 168° |
| 2026-04-12 03:21 | 42.17351 | -87.92580 | 4991 ft | 116 kts | 168° |
| 2026-04-12 03:21 | 42.16605 | -87.92179 | 4989 ft | 116 kts | 168° |
| 2026-04-12 03:21 | 42.15843 | -87.91769 | 4992 ft | 117 kts | 168° |
| 2026-04-12 03:22 | 42.15091 | -87.91362 | 4996 ft | 116 kts | 168° |
| 2026-04-12 03:22 | 42.14331 | -87.90952 | 4995 ft | 118 kts | 168° |
| 2026-04-12 03:22 | 42.13573 | -87.90543 | 4998 ft | 117 kts | 168° |
| 2026-04-12 03:22 | 42.12810 | -87.90134 | 5000 ft | 118 kts | 168° |
| 2026-04-12 03:23 | 42.12049 | -87.89724 | 4998 ft | 118 kts | 168° |
| 2026-04-12 03:23 | 42.11286 | -87.89311 | 5000 ft | 118 kts | 168° |
| 2026-04-12 03:23 | 42.10515 | -87.88898 | 4999 ft | 118 kts | 168° |
| 2026-04-12 03:23 | 42.09748 | -87.88485 | 4999 ft | 118 kts | 168° |
| 2026-04-12 03:24 | 42.08997 | -87.88082 | 5000 ft | 118 kts | 167° |
| 2026-04-12 03:24 | 42.08225 | -87.87667 | 5003 ft | 118 kts | 167° |
| 2026-04-12 03:24 | 42.07460 | -87.87258 | 5006 ft | 118 kts | 167° |
| 2026-04-12 03:24 | 42.06701 | -87.86848 | 5007 ft | 118 kts | 167° |
| 2026-04-12 03:25 | 42.05945 | -87.86441 | 5009 ft | 118 kts | 167° |
| 2026-04-12 03:25 | 42.05181 | -87.86028 | 5008 ft | 117 kts | 168° |
| 2026-04-12 03:25 | 42.04424 | -87.85619 | 5009 ft | 117 kts | 168° |
| 2026-04-12 03:25 | 42.03661 | -87.85210 | 5012 ft | 117 kts | 168° |
| 2026-04-12 03:26 | 42.02896 | -87.84800 | 5010 ft | 118 kts | 168° |
| 2026-04-12 03:26 | 42.02125 | -87.84385 | 5009 ft | 118 kts | 168° |
| 2026-04-12 03:26 | 42.01366 | -87.83977 | 5009 ft | 118 kts | 168° |
| 2026-04-12 03:26 | 42.00599 | -87.83566 | 5005 ft | 118 kts | 168° |
| 2026-04-12 03:27 | 41.99836 | -87.83157 | 5008 ft | 118 kts | 168° |
| 2026-04-12 03:27 | 41.99073 | -87.82746 | 5008 ft | 118 kts | 168° |
| 2026-04-12 03:27 | 41.98300 | -87.82332 | 5005 ft | 118 kts | 168° |
| 2026-04-12 03:27 | 41.97530 | -87.81920 | 5006 ft | 119 kts | 168° |
| 2026-04-12 03:28 | 41.96757 | -87.81507 | 5007 ft | 118 kts | 168° |
| 2026-04-12 03:28 | 41.95980 | -87.81090 | 5005 ft | 119 kts | 168° |
| 2026-04-12 03:28 | 41.95206 | -87.80674 | 5009 ft | 119 kts | 168° |
| 2026-04-12 03:28 | 41.94439 | -87.80263 | 5006 ft | 118 kts | 168° |
| 2026-04-12 03:29 | 41.93675 | -87.79855 | 5007 ft | 118 kts | 168° |
| 2026-04-12 03:29 | 41.92910 | -87.79445 | 5008 ft | 118 kts | 168° |
| 2026-04-12 03:29 | 41.92145 | -87.79035 | 5006 ft | 118 kts | 168° |
| 2026-04-12 03:29 | 41.91388 | -87.78631 | 5007 ft | 117 kts | 168° |
| 2026-04-12 03:30 | 41.90622 | -87.78220 | 5006 ft | 118 kts | 168° |
| 2026-04-12 03:30 | 41.89855 | -87.77809 | 5006 ft | 118 kts | 168° |
| 2026-04-12 03:30 | 41.89092 | -87.77401 | 5011 ft | 118 kts | 168° |
| 2026-04-12 03:30 | 41.88322 | -87.76989 | 5011 ft | 119 kts | 169° |
| 2026-04-12 03:31 | 41.87557 | -87.76579 | 5010 ft | 119 kts | 168° |
| 2026-04-12 03:31 | 41.86779 | -87.76166 | 5012 ft | 119 kts | 168° |
| 2026-04-12 03:31 | 41.86006 | -87.75753 | 5010 ft | 119 kts | 168° |
| 2026-04-12 03:31 | 41.85231 | -87.75338 | 5013 ft | 119 kts | 168° |
| 2026-04-12 03:32 | 41.84468 | -87.74933 | 5011 ft | 119 kts | 168° |
| 2026-04-12 03:32 | 41.83686 | -87.74515 | 5011 ft | 120 kts | 168° |
| 2026-04-12 03:32 | 41.82914 | -87.74101 | 5011 ft | 119 kts | 168° |
| 2026-04-12 03:32 | 41.82144 | -87.73692 | 5012 ft | 119 kts | 168° |
| 2026-04-12 03:33 | 41.81374 | -87.73280 | 5013 ft | 118 kts | 168° |
| 2026-04-12 03:33 | 41.80611 | -87.72875 | 5014 ft | 119 kts | 168° |
| 2026-04-12 03:33 | 41.79845 | -87.72465 | 5012 ft | 118 kts | 168° |
| 2026-04-12 03:33 | 41.79078 | -87.72055 | 5014 ft | 118 kts | 168° |
| 2026-04-12 03:34 | 41.78302 | -87.71642 | 5012 ft | 119 kts | 168° |
| 2026-04-12 03:34 | 41.77529 | -87.71230 | 5010 ft | 119 kts | 168° |
| 2026-04-12 03:34 | 41.76781 | -87.70727 | 4960 ft | 128 kts | 152° |
| 2026-04-12 03:34 | 41.76385 | -87.69607 | 4942 ft | 143 kts | 111° |
| 2026-04-12 03:35 | 41.76326 | -87.68290 | 5005 ft | 142 kts | 105° |
| 2026-04-12 03:35 | 41.76257 | -87.66960 | 5011 ft | 143 kts | 106° |
| 2026-04-12 03:35 | 41.76187 | -87.65621 | 5012 ft | 144 kts | 105° |
| 2026-04-12 03:35 | 41.76006 | -87.64329 | 5009 ft | 141 kts | 115° |
| 2026-04-12 03:36 | 41.75782 | -87.63046 | 5009 ft | 140 kts | 115° |
| 2026-04-12 03:36 | 41.75555 | -87.61785 | 5008 ft | 140 kts | 115° |
| 2026-04-12 03:36 | 41.75325 | -87.60515 | 5009 ft | 140 kts | 115° |
| 2026-04-12 03:36 | 41.75100 | -87.59250 | 5012 ft | 140 kts | 115° |
| 2026-04-12 03:37 | 41.74873 | -87.57983 | 5012 ft | 140 kts | 115° |
| 2026-04-12 03:37 | 41.74645 | -87.56731 | 5015 ft | 140 kts | 115° |
| 2026-04-12 03:37 | 41.74414 | -87.55455 | 5014 ft | 140 kts | 115° |
| 2026-04-12 03:37 | 41.74190 | -87.54195 | 5013 ft | 140 kts | 115° |
| 2026-04-12 03:38 | 41.73963 | -87.52919 | 5015 ft | 140 kts | 115° |
| 2026-04-12 03:38 | 41.73708 | -87.51671 | 5017 ft | 137 kts | 123° |
| 2026-04-12 03:38 | 41.73357 | -87.50484 | 5017 ft | 136 kts | 124° |
| 2026-04-12 03:38 | 41.72996 | -87.49307 | 5018 ft | 137 kts | 124° |
| 2026-04-12 03:39 | 41.72632 | -87.48126 | 5017 ft | 137 kts | 124° |
| 2026-04-12 03:39 | 41.72267 | -87.46944 | 5017 ft | 137 kts | 124° |
| 2026-04-12 03:39 | 41.71898 | -87.45763 | 5014 ft | 138 kts | 124° |
| 2026-04-12 03:39 | 41.71528 | -87.44577 | 5015 ft | 137 kts | 124° |
| 2026-04-12 03:40 | 41.71159 | -87.43393 | 5017 ft | 138 kts | 124° |
| 2026-04-12 03:40 | 41.70792 | -87.42209 | 5015 ft | 137 kts | 124° |
| 2026-04-12 03:40 | 41.70423 | -87.41036 | 5017 ft | 137 kts | 124° |
| 2026-04-12 03:40 | 41.70056 | -87.39854 | 5016 ft | 137 kts | 124° |
| 2026-04-12 03:41 | 41.69689 | -87.38689 | 5016 ft | 137 kts | 124° |
| 2026-04-12 03:41 | 41.69315 | -87.37496 | 5016 ft | 137 kts | 124° |
| 2026-04-12 03:41 | 41.68951 | -87.36330 | 5018 ft | 137 kts | 124° |
| 2026-04-12 03:41 | 41.68581 | -87.35148 | 5020 ft | 138 kts | 124° |
| 2026-04-12 03:42 | 41.68211 | -87.33966 | 5016 ft | 138 kts | 125° |
| 2026-04-12 03:42 | 41.67841 | -87.32787 | 5017 ft | 138 kts | 125° |
| 2026-04-12 03:42 | 41.67468 | -87.31600 | 5016 ft | 138 kts | 124° |
| 2026-04-12 03:42 | 41.67096 | -87.30418 | 5015 ft | 138 kts | 125° |
| 2026-04-12 03:43 | 41.66723 | -87.29234 | 5013 ft | 138 kts | 125° |
| 2026-04-12 03:43 | 41.66349 | -87.28049 | 5014 ft | 137 kts | 125° |
| 2026-04-12 03:43 | 41.65983 | -87.26885 | 5015 ft | 137 kts | 125° |
| 2026-04-12 03:43 | 41.65611 | -87.25706 | 5014 ft | 138 kts | 124° |
| 2026-04-12 03:44 | 41.65237 | -87.24516 | 5024 ft | 138 kts | 124° |
| 2026-04-12 03:44 | 41.64866 | -87.23344 | 5011 ft | 138 kts | 124° |
| 2026-04-12 03:44 | 41.64489 | -87.22147 | 5005 ft | 139 kts | 124° |
| 2026-04-12 03:44 | 41.64117 | -87.20949 | 5011 ft | 141 kts | 124° |
| 2026-04-12 03:45 | 41.63849 | -87.19685 | 5013 ft | 143 kts | 116° |
| 2026-04-12 03:45 | 41.63599 | -87.18389 | 5016 ft | 144 kts | 116° |
| 2026-04-12 03:45 | 41.63350 | -87.17086 | 5010 ft | 143 kts | 115° |
| 2026-04-12 03:45 | 41.63111 | -87.15803 | 5008 ft | 143 kts | 115° |
| 2026-04-12 03:46 | 41.62872 | -87.14507 | 5011 ft | 144 kts | 115° |
| 2026-04-12 03:46 | 41.62631 | -87.13208 | 5007 ft | 144 kts | 115° |
| 2026-04-12 03:46 | 41.62390 | -87.11906 | 5011 ft | 144 kts | 115° |
| 2026-04-12 03:46 | 41.62154 | -87.10623 | 5011 ft | 144 kts | 115° |
| 2026-04-12 03:47 | 41.61915 | -87.09309 | 5023 ft | 143 kts | 115° |
| 2026-04-12 03:47 | 41.61678 | -87.08026 | 5030 ft | 144 kts | 115° |
| 2026-04-12 03:47 | 41.61439 | -87.06724 | 5028 ft | 144 kts | 115° |
| 2026-04-12 03:47 | 41.61202 | -87.05425 | 5023 ft | 143 kts | 115° |
| 2026-04-12 03:48 | 41.60964 | -87.04132 | 5031 ft | 144 kts | 114° |
| 2026-04-12 03:48 | 41.60727 | -87.02840 | 5034 ft | 143 kts | 115° |
| 2026-04-12 03:48 | 41.60488 | -87.01534 | 5035 ft | 143 kts | 114° |
| 2026-04-12 03:48 | 41.60250 | -87.00243 | 5034 ft | 144 kts | 114° |
| 2026-04-12 03:49 | 41.60014 | -86.98952 | 5034 ft | 144 kts | 114° |
| 2026-04-12 03:49 | 41.59773 | -86.97641 | 5032 ft | 144 kts | 114° |
| 2026-04-12 03:49 | 41.59534 | -86.96336 | 5032 ft | 144 kts | 115° |
| 2026-04-12 03:49 | 41.59294 | -86.95036 | 5033 ft | 144 kts | 114° |
| 2026-04-12 03:50 | 41.59055 | -86.93738 | 5035 ft | 144 kts | 114° |
| 2026-04-12 03:50 | 41.58816 | -86.92439 | 5035 ft | 145 kts | 114° |
| 2026-04-12 03:50 | 41.58577 | -86.91142 | 5034 ft | 144 kts | 114° |
| 2026-04-12 03:50 | 41.58334 | -86.89829 | 5037 ft | 144 kts | 114° |
| 2026-04-12 03:51 | 41.58096 | -86.88532 | 5039 ft | 144 kts | 114° |
| 2026-04-12 03:51 | 41.57858 | -86.87238 | 5039 ft | 144 kts | 115° |
| 2026-04-12 03:51 | 41.57619 | -86.85941 | 5037 ft | 144 kts | 115° |
| 2026-04-12 03:51 | 41.57375 | -86.84634 | 5038 ft | 144 kts | 114° |
| 2026-04-12 03:52 | 41.57137 | -86.83339 | 5037 ft | 144 kts | 114° |
| 2026-04-12 03:52 | 41.56897 | -86.82044 | 5039 ft | 144 kts | 115° |
| 2026-04-12 03:52 | 41.56656 | -86.80750 | 5038 ft | 144 kts | 114° |
| 2026-04-12 03:52 | 41.56415 | -86.79452 | 5039 ft | 144 kts | 114° |
| 2026-04-12 03:53 | 41.56175 | -86.78152 | 5039 ft | 144 kts | 114° |
| 2026-04-12 03:53 | 41.55933 | -86.76852 | 5038 ft | 144 kts | 114° |
| 2026-04-12 03:53 | 41.55690 | -86.75538 | 5038 ft | 144 kts | 115° |
| 2026-04-12 03:53 | 41.55449 | -86.74243 | 5040 ft | 144 kts | 115° |
| 2026-04-12 03:54 | 41.55207 | -86.72951 | 5037 ft | 144 kts | 114° |
| 2026-04-12 03:54 | 41.54966 | -86.71655 | 5039 ft | 144 kts | 114° |
| 2026-04-12 03:54 | 41.54726 | -86.70354 | 5040 ft | 144 kts | 114° |
| 2026-04-12 03:54 | 41.54483 | -86.69054 | 5037 ft | 144 kts | 114° |
| 2026-04-12 03:55 | 41.54242 | -86.67761 | 5040 ft | 144 kts | 114° |
| 2026-04-12 03:55 | 41.54001 | -86.66470 | 5041 ft | 144 kts | 114° |
| 2026-04-12 03:55 | 41.53755 | -86.65158 | 5039 ft | 144 kts | 114° |
| 2026-04-12 03:55 | 41.53514 | -86.63863 | 5043 ft | 144 kts | 114° |
| 2026-04-12 03:56 | 41.53272 | -86.62570 | 5044 ft | 144 kts | 114° |
| 2026-04-12 03:56 | 41.53031 | -86.61279 | 5046 ft | 144 kts | 115° |
| 2026-04-12 03:56 | 41.52788 | -86.59985 | 5049 ft | 144 kts | 114° |
| 2026-04-12 03:56 | 41.52543 | -86.58678 | 5049 ft | 144 kts | 114° |
| 2026-04-12 03:57 | 41.52302 | -86.57392 | 5048 ft | 144 kts | 115° |
| 2026-04-12 03:57 | 41.52058 | -86.56097 | 5049 ft | 144 kts | 114° |
| 2026-04-12 03:57 | 41.51814 | -86.54791 | 5050 ft | 144 kts | 114° |
| 2026-04-12 03:57 | 41.51570 | -86.53501 | 5051 ft | 143 kts | 114° |
| 2026-04-12 03:58 | 41.51329 | -86.52216 | 5056 ft | 143 kts | 114° |
| 2026-04-12 03:58 | 41.51086 | -86.50932 | 5055 ft | 143 kts | 114° |
| 2026-04-12 03:58 | 41.50845 | -86.49641 | 5055 ft | 144 kts | 114° |
| 2026-04-12 03:58 | 41.50601 | -86.48355 | 5054 ft | 144 kts | 114° |
| 2026-04-12 03:59 | 41.50355 | -86.47044 | 5052 ft | 144 kts | 114° |
| 2026-04-12 03:59 | 41.50112 | -86.45756 | 5050 ft | 144 kts | 114° |
| 2026-04-12 03:59 | 41.49869 | -86.44468 | 5051 ft | 144 kts | 114° |
| 2026-04-12 03:59 | 41.49623 | -86.43167 | 5062 ft | 144 kts | 114° |
| 2026-04-12 04:00 | 41.49381 | -86.41874 | 5056 ft | 144 kts | 114° |
| 2026-04-12 04:00 | 41.49136 | -86.40584 | 5051 ft | 144 kts | 114° |
| 2026-04-12 04:00 | 41.48890 | -86.39292 | 5051 ft | 144 kts | 114° |
| 2026-04-12 04:00 | 41.48642 | -86.37978 | 5047 ft | 144 kts | 114° |
| 2026-04-12 04:01 | 41.48398 | -86.36693 | 5047 ft | 144 kts | 114° |
| 2026-04-12 04:01 | 41.48150 | -86.35384 | 4995 ft | 146 kts | 115° |
| 2026-04-12 04:01 | 41.47903 | -86.34083 | 4983 ft | 143 kts | 115° |
| 2026-04-12 04:01 | 41.47658 | -86.32806 | 4986 ft | 142 kts | 115° |
| 2026-04-12 04:02 | 41.47413 | -86.31513 | 4984 ft | 143 kts | 115° |
| 2026-04-12 04:02 | 41.46928 | -86.28963 | 4992 ft | 143 kts | 114° |
| 2026-04-12 04:02 | 41.46681 | -86.27665 | 4988 ft | 143 kts | 114° |
| 2026-04-12 04:03 | 41.46438 | -86.26382 | 4986 ft | 143 kts | 114° |
| 2026-04-12 04:03 | 41.46193 | -86.25103 | 4989 ft | 143 kts | 114° |
| 2026-04-12 04:03 | 41.45948 | -86.23809 | 4987 ft | 143 kts | 115° |
| 2026-04-12 04:03 | 41.45705 | -86.22532 | 4985 ft | 143 kts | 115° |
| 2026-04-12 04:04 | 41.45460 | -86.21249 | 4987 ft | 143 kts | 115° |
| 2026-04-12 04:04 | 41.45211 | -86.19952 | 4986 ft | 143 kts | 115° |
| 2026-04-12 04:04 | 41.44967 | -86.18671 | 4986 ft | 143 kts | 115° |
| 2026-04-12 04:04 | 41.44721 | -86.17387 | 4985 ft | 143 kts | 115° |
| 2026-04-12 04:05 | 41.44476 | -86.16112 | 4986 ft | 143 kts | 115° |
| 2026-04-12 04:05 | 41.44229 | -86.14818 | 4984 ft | 143 kts | 115° |
| 2026-04-12 04:05 | 41.43984 | -86.13542 | 4978 ft | 143 kts | 115° |
| 2026-04-12 04:05 | 41.43734 | -86.12249 | 4977 ft | 143 kts | 115° |
| 2026-04-12 04:06 | 41.43487 | -86.10970 | 4975 ft | 143 kts | 115° |
| 2026-04-12 04:06 | 41.43242 | -86.09695 | 4979 ft | 142 kts | 114° |
| 2026-04-12 04:06 | 41.42994 | -86.08408 | 4980 ft | 143 kts | 115° |
| 2026-04-12 04:06 | 41.42750 | -86.07133 | 4980 ft | 143 kts | 114° |
| 2026-04-12 04:07 | 41.42502 | -86.05842 | 4974 ft | 143 kts | 114° |
| 2026-04-12 04:07 | 41.42257 | -86.04568 | 4973 ft | 143 kts | 115° |
| 2026-04-12 04:07 | 41.42007 | -86.03273 | 4969 ft | 143 kts | 115° |
| 2026-04-12 04:07 | 41.41759 | -86.01984 | 4971 ft | 142 kts | 114° |
| 2026-04-12 04:08 | 41.41513 | -86.00711 | 4974 ft | 142 kts | 114° |
| 2026-04-12 04:08 | 41.41267 | -85.99442 | 4980 ft | 142 kts | 114° |
| 2026-04-12 04:08 | 41.41022 | -85.98177 | 4986 ft | 142 kts | 114° |
| 2026-04-12 04:08 | 41.40776 | -85.96890 | 4987 ft | 142 kts | 115° |
| 2026-04-12 04:09 | 41.40530 | -85.95622 | 4988 ft | 142 kts | 115° |
| 2026-04-12 04:09 | 41.40280 | -85.94329 | 4987 ft | 142 kts | 115° |
| 2026-04-12 04:09 | 41.40031 | -85.93054 | 4994 ft | 143 kts | 115° |
| 2026-04-12 04:09 | 41.39784 | -85.91779 | 4992 ft | 143 kts | 114° |
| 2026-04-12 04:10 | 41.39535 | -85.90505 | 4989 ft | 142 kts | 114° |
| 2026-04-12 04:10 | 41.39285 | -85.89213 | 4993 ft | 143 kts | 114° |
| 2026-04-12 04:10 | 41.39037 | -85.87939 | 4996 ft | 143 kts | 114° |
| 2026-04-12 04:10 | 41.38791 | -85.86662 | 4995 ft | 143 kts | 114° |
| 2026-04-12 04:11 | 41.38542 | -85.85391 | 4998 ft | 142 kts | 114° |
| 2026-04-12 04:11 | 41.38292 | -85.84102 | 4998 ft | 143 kts | 114° |
| 2026-04-12 04:11 | 41.38042 | -85.82829 | 4996 ft | 143 kts | 114° |
| 2026-04-12 04:11 | 41.37794 | -85.81551 | 4995 ft | 143 kts | 114° |
| 2026-04-12 04:12 | 41.37542 | -85.80258 | 4996 ft | 143 kts | 114° |
| 2026-04-12 04:12 | 41.37294 | -85.78986 | 4997 ft | 143 kts | 114° |
| 2026-04-12 04:12 | 41.37046 | -85.77715 | 4997 ft | 143 kts | 114° |
| 2026-04-12 04:12 | 41.36797 | -85.76442 | 4998 ft | 143 kts | 114° |
| 2026-04-12 04:13 | 41.36544 | -85.75151 | 4998 ft | 143 kts | 114° |
| 2026-04-12 04:13 | 41.36295 | -85.73875 | 4997 ft | 143 kts | 114° |
| 2026-04-12 04:13 | 41.36045 | -85.72595 | 4996 ft | 143 kts | 114° |
| 2026-04-12 04:13 | 41.35794 | -85.71313 | 4998 ft | 143 kts | 114° |
| 2026-04-12 04:14 | 41.35541 | -85.70029 | 4999 ft | 143 kts | 114° |
| 2026-04-12 04:14 | 41.35287 | -85.68734 | 5004 ft | 143 kts | 114° |
| 2026-04-12 04:14 | 41.35033 | -85.67448 | 5001 ft | 144 kts | 114° |
| 2026-04-12 04:14 | 41.34782 | -85.66167 | 5001 ft | 143 kts | 114° |
| 2026-04-12 04:15 | 41.34530 | -85.64888 | 5000 ft | 143 kts | 114° |
| 2026-04-12 04:15 | 41.34280 | -85.63614 | 5001 ft | 143 kts | 114° |
| 2026-04-12 04:15 | 41.34029 | -85.62341 | 4999 ft | 143 kts | 114° |
| 2026-04-12 04:15 | 41.33776 | -85.61049 | 4995 ft | 143 kts | 114° |
| 2026-04-12 04:16 | 41.33526 | -85.59779 | 4995 ft | 142 kts | 114° |
| 2026-04-12 04:16 | 41.33275 | -85.58505 | 4994 ft | 143 kts | 114° |
| 2026-04-12 04:16 | 41.33022 | -85.57227 | 4991 ft | 143 kts | 114° |
| 2026-04-12 04:16 | 41.32770 | -85.55952 | 4988 ft | 143 kts | 114° |
| 2026-04-12 04:17 | 41.32515 | -85.54658 | 4987 ft | 143 kts | 114° |
| 2026-04-12 04:17 | 41.32262 | -85.53382 | 4989 ft | 143 kts | 114° |
| 2026-04-12 04:17 | 41.32010 | -85.52107 | 4988 ft | 143 kts | 114° |
| 2026-04-12 04:17 | 41.31757 | -85.50829 | 4990 ft | 143 kts | 114° |
| 2026-04-12 04:18 | 41.31501 | -85.49540 | 4989 ft | 143 kts | 114° |
| 2026-04-12 04:18 | 41.31248 | -85.48268 | 4988 ft | 142 kts | 114° |
| 2026-04-12 04:18 | 41.30999 | -85.47000 | 4990 ft | 142 kts | 114° |
| 2026-04-12 04:18 | 41.30742 | -85.45710 | 4995 ft | 143 kts | 114° |
| 2026-04-12 04:19 | 41.30489 | -85.44434 | 4998 ft | 143 kts | 114° |
| 2026-04-12 04:19 | 41.30235 | -85.43162 | 5000 ft | 143 kts | 114° |
| 2026-04-12 04:19 | 41.29983 | -85.41892 | 5005 ft | 143 kts | 114° |
| 2026-04-12 04:19 | 41.29728 | -85.40604 | 5007 ft | 143 kts | 114° |
| 2026-04-12 04:20 | 41.29475 | -85.39333 | 5010 ft | 143 kts | 114° |
| 2026-04-12 04:20 | 41.29221 | -85.38060 | 5008 ft | 143 kts | 114° |
| 2026-04-12 04:20 | 41.28963 | -85.36764 | 4979 ft | 144 kts | 114° |
| 2026-04-12 04:20 | 41.28707 | -85.35488 | 4981 ft | 143 kts | 114° |
| 2026-04-12 04:21 | 41.28452 | -85.34214 | 4980 ft | 143 kts | 114° |
| 2026-04-12 04:21 | 41.28200 | -85.32945 | 4987 ft | 142 kts | 114° |
| 2026-04-12 04:21 | 41.27943 | -85.31661 | 4984 ft | 142 kts | 114° |
| 2026-04-12 04:21 | 41.27690 | -85.30394 | 4984 ft | 142 kts | 114° |
| 2026-04-12 04:22 | 41.27435 | -85.29128 | 4981 ft | 143 kts | 114° |
| 2026-04-12 04:22 | 41.27178 | -85.27835 | 4976 ft | 143 kts | 115° |
| 2026-04-12 04:22 | 41.26922 | -85.26558 | 4972 ft | 144 kts | 114° |
| 2026-04-12 04:22 | 41.26667 | -85.25281 | 4971 ft | 143 kts | 115° |
| 2026-04-12 04:23 | 41.26411 | -85.24010 | 4971 ft | 143 kts | 115° |
| 2026-04-12 04:23 | 41.26150 | -85.22721 | 4971 ft | 143 kts | 114° |
| 2026-04-12 04:23 | 41.25897 | -85.21450 | 4974 ft | 143 kts | 114° |
| 2026-04-12 04:23 | 41.25639 | -85.20175 | 4973 ft | 143 kts | 114° |
| 2026-04-12 04:24 | 41.25383 | -85.18896 | 4972 ft | 143 kts | 114° |
| 2026-04-12 04:24 | 41.25128 | -85.17633 | 4972 ft | 143 kts | 114° |
| 2026-04-12 04:24 | 41.24872 | -85.16353 | 4972 ft | 144 kts | 114° |
| 2026-04-12 04:24 | 41.24613 | -85.15067 | 4970 ft | 144 kts | 114° |
| 2026-04-12 04:25 | 41.24353 | -85.13784 | 4970 ft | 144 kts | 114° |
| 2026-04-12 04:25 | 41.24095 | -85.12500 | 4971 ft | 144 kts | 114° |
| 2026-04-12 04:25 | 41.23834 | -85.11215 | 4970 ft | 144 kts | 114° |
| 2026-04-12 04:25 | 41.23577 | -85.09934 | 4972 ft | 144 kts | 114° |
| 2026-04-12 04:26 | 41.23317 | -85.08653 | 4972 ft | 144 kts | 114° |
| 2026-04-12 04:26 | 41.23060 | -85.07374 | 4971 ft | 144 kts | 114° |
| 2026-04-12 04:26 | 41.22798 | -85.06096 | 4973 ft | 143 kts | 114° |
| 2026-04-12 04:26 | 41.22538 | -85.04804 | 4974 ft | 143 kts | 114° |
| 2026-04-12 04:27 | 41.22282 | -85.03538 | 4975 ft | 143 kts | 114° |
| 2026-04-12 04:27 | 41.22025 | -85.02271 | 4974 ft | 143 kts | 114° |
| 2026-04-12 04:27 | 41.21764 | -85.00987 | 4974 ft | 143 kts | 114° |
| 2026-04-12 04:27 | 41.21505 | -84.99721 | 4979 ft | 142 kts | 114° |
| 2026-04-12 04:28 | 41.21248 | -84.98450 | 4981 ft | 143 kts | 114° |
| 2026-04-12 04:28 | 41.20991 | -84.97185 | 4984 ft | 143 kts | 113° |
| 2026-04-12 04:28 | 41.20734 | -84.95915 | 4986 ft | 143 kts | 114° |
| 2026-04-12 04:28 | 41.20475 | -84.94633 | 4988 ft | 143 kts | 114° |
| 2026-04-12 04:29 | 41.20213 | -84.93358 | 4988 ft | 143 kts | 113° |
| 2026-04-12 04:29 | 41.19953 | -84.92086 | 4993 ft | 143 kts | 114° |
| 2026-04-12 04:29 | 41.19691 | -84.90791 | 4987 ft | 143 kts | 114° |
| 2026-04-12 04:29 | 41.19430 | -84.89522 | 4994 ft | 143 kts | 114° |
| 2026-04-12 04:30 | 41.19169 | -84.88243 | 4986 ft | 144 kts | 114° |
| 2026-04-12 04:30 | 41.18905 | -84.86953 | 4980 ft | 144 kts | 113° |
| 2026-04-12 04:30 | 41.18645 | -84.85680 | 4981 ft | 143 kts | 113° |
| 2026-04-12 04:30 | 41.18385 | -84.84405 | 4978 ft | 143 kts | 114° |
| 2026-04-12 04:31 | 41.18126 | -84.83140 | 4978 ft | 142 kts | 114° |
| 2026-04-12 04:31 | 41.17863 | -84.81861 | 4977 ft | 142 kts | 113° |
| 2026-04-12 04:31 | 41.17606 | -84.80598 | 4977 ft | 142 kts | 114° |
| 2026-04-12 04:31 | 41.17346 | -84.79334 | 4975 ft | 142 kts | 114° |
| 2026-04-12 04:32 | 41.17086 | -84.78068 | 4974 ft | 142 kts | 114° |
| 2026-04-12 04:32 | 41.16822 | -84.76788 | 4974 ft | 142 kts | 113° |
| 2026-04-12 04:32 | 41.16565 | -84.75526 | 4973 ft | 143 kts | 113° |
| 2026-04-12 04:32 | 41.16305 | -84.74258 | 4974 ft | 143 kts | 113° |
| 2026-04-12 04:33 | 41.16041 | -84.72977 | 4973 ft | 143 kts | 113° |
| 2026-04-12 04:33 | 41.15781 | -84.71710 | 4972 ft | 143 kts | 114° |
| 2026-04-12 04:33 | 41.15519 | -84.70446 | 4972 ft | 143 kts | 114° |
| 2026-04-12 04:33 | 41.15258 | -84.69179 | 4974 ft | 143 kts | 114° |
| 2026-04-12 04:34 | 41.14994 | -84.67896 | 4973 ft | 142 kts | 113° |
| 2026-04-12 04:34 | 41.14735 | -84.66639 | 4975 ft | 142 kts | 114° |
| 2026-04-12 04:34 | 41.14474 | -84.65372 | 4974 ft | 142 kts | 113° |
| 2026-04-12 04:34 | 41.14209 | -84.64088 | 4974 ft | 142 kts | 113° |
| 2026-04-12 04:35 | 41.13948 | -84.62826 | 4974 ft | 142 kts | 113° |
| 2026-04-12 04:35 | 41.13687 | -84.61570 | 4977 ft | 142 kts | 113° |
| 2026-04-12 04:35 | 41.13427 | -84.60309 | 4976 ft | 142 kts | 113° |
| 2026-04-12 04:35 | 41.13163 | -84.59031 | 4972 ft | 142 kts | 113° |
| 2026-04-12 04:36 | 41.12900 | -84.57770 | 4970 ft | 142 kts | 113° |
| 2026-04-12 04:36 | 41.12637 | -84.56503 | 4966 ft | 143 kts | 113° |
| 2026-04-12 04:36 | 41.12372 | -84.55225 | 4963 ft | 142 kts | 113° |
| 2026-04-12 04:36 | 41.12111 | -84.53968 | 4965 ft | 142 kts | 113° |
| 2026-04-12 04:37 | 41.11845 | -84.52691 | 4965 ft | 143 kts | 112° |
| 2026-04-12 04:37 | 41.11583 | -84.51424 | 4966 ft | 143 kts | 112° |
| 2026-04-12 04:37 | 41.11319 | -84.50161 | 4965 ft | 143 kts | 112° |
| 2026-04-12 04:37 | 41.11053 | -84.48880 | 4972 ft | 143 kts | 112° |
| 2026-04-12 04:38 | 41.10793 | -84.47618 | 4976 ft | 142 kts | 113° |
| 2026-04-12 04:38 | 41.10529 | -84.46358 | 4978 ft | 142 kts | 113° |
| 2026-04-12 04:38 | 41.10268 | -84.45095 | 4979 ft | 142 kts | 113° |
| 2026-04-12 04:38 | 41.10005 | -84.43835 | 4976 ft | 142 kts | 113° |
| 2026-04-12 04:39 | 41.09738 | -84.42562 | 4977 ft | 142 kts | 113° |
| 2026-04-12 04:39 | 41.09474 | -84.41299 | 4975 ft | 143 kts | 113° |
| 2026-04-12 04:39 | 41.09209 | -84.40035 | 4973 ft | 142 kts | 113° |
| 2026-04-12 04:39 | 41.08942 | -84.38753 | 4975 ft | 142 kts | 113° |
| 2026-04-12 04:40 | 41.08677 | -84.37493 | 4978 ft | 142 kts | 113° |
| 2026-04-12 04:40 | 41.08414 | -84.36236 | 4976 ft | 142 kts | 112° |
| 2026-04-12 04:40 | 41.08148 | -84.34977 | 4981 ft | 142 kts | 113° |
| 2026-04-12 04:40 | 41.07883 | -84.33705 | 4980 ft | 142 kts | 113° |
| 2026-04-12 04:41 | 41.07619 | -84.32449 | 4979 ft | 142 kts | 113° |
| 2026-04-12 04:41 | 41.07357 | -84.31197 | 4979 ft | 141 kts | 113° |
| 2026-04-12 04:41 | 41.07092 | -84.29928 | 4978 ft | 142 kts | 113° |
| 2026-04-12 04:41 | 41.06830 | -84.28678 | 4980 ft | 142 kts | 114° |
| 2026-04-12 04:42 | 41.06564 | -84.27412 | 4980 ft | 141 kts | 114° |
| 2026-04-12 04:42 | 41.06301 | -84.26161 | 4983 ft | 142 kts | 114° |
| 2026-04-12 04:42 | 41.06038 | -84.24908 | 4985 ft | 142 kts | 114° |
| 2026-04-12 04:43 | 41.05505 | -84.22384 | 4989 ft | 142 kts | 114° |
| 2026-04-12 04:43 | 41.05239 | -84.21124 | 4991 ft | 142 kts | 114° |
| 2026-04-12 04:43 | 41.04974 | -84.19867 | 4992 ft | 142 kts | 114° |
| 2026-04-12 04:43 | 41.04708 | -84.18610 | 4993 ft | 142 kts | 114° |
| 2026-04-12 04:44 | 41.04440 | -84.17338 | 4993 ft | 142 kts | 114° |
| 2026-04-12 04:44 | 41.04174 | -84.16089 | 4991 ft | 142 kts | 114° |
| 2026-04-12 04:44 | 41.03912 | -84.14836 | 4994 ft | 142 kts | 114° |
| 2026-04-12 04:44 | 41.03645 | -84.13582 | 4993 ft | 142 kts | 113° |
| 2026-04-12 04:45 | 41.03380 | -84.12330 | 4995 ft | 141 kts | 113° |
| 2026-04-12 04:45 | 41.03112 | -84.11060 | 4995 ft | 141 kts | 114° |
| 2026-04-12 04:45 | 41.02846 | -84.09811 | 4994 ft | 141 kts | 114° |
| 2026-04-12 04:45 | 41.02581 | -84.08564 | 4994 ft | 141 kts | 113° |
| 2026-04-12 04:46 | 41.02319 | -84.07315 | 4996 ft | 141 kts | 113° |
| 2026-04-12 04:46 | 41.02054 | -84.06068 | 4995 ft | 142 kts | 114° |
| 2026-04-12 04:46 | 41.01785 | -84.04804 | 4995 ft | 141 kts | 114° |
| 2026-04-12 04:46 | 41.01519 | -84.03558 | 4994 ft | 141 kts | 113° |
| 2026-04-12 04:47 | 41.01255 | -84.02309 | 4995 ft | 142 kts | 114° |
| 2026-04-12 04:47 | 41.00983 | -84.01038 | 4994 ft | 142 kts | 114° |
| 2026-04-12 04:47 | 41.00717 | -83.99781 | 4994 ft | 142 kts | 114° |
| 2026-04-12 04:47 | 41.00444 | -83.98516 | 4995 ft | 142 kts | 113° |
| 2026-04-12 04:48 | 41.00179 | -83.97267 | 4998 ft | 141 kts | 113° |
| 2026-04-12 04:48 | 40.99912 | -83.96022 | 4999 ft | 141 kts | 113° |
| 2026-04-12 04:48 | 40.99643 | -83.94756 | 5000 ft | 141 kts | 113° |
| 2026-04-12 04:48 | 40.99377 | -83.93507 | 4999 ft | 141 kts | 113° |
| 2026-04-12 04:49 | 40.99110 | -83.92258 | 4999 ft | 141 kts | 113° |
| 2026-04-12 04:49 | 40.98842 | -83.91007 | 4997 ft | 142 kts | 113° |
| 2026-04-12 04:49 | 40.98573 | -83.89756 | 4996 ft | 142 kts | 113° |
| 2026-04-12 04:49 | 40.98307 | -83.88500 | 4994 ft | 142 kts | 113° |
| 2026-04-12 04:50 | 40.98037 | -83.87236 | 4995 ft | 142 kts | 114° |
| 2026-04-12 04:50 | 40.97767 | -83.85986 | 4994 ft | 141 kts | 113° |
| 2026-04-12 04:50 | 40.97500 | -83.84734 | 4995 ft | 142 kts | 114° |
| 2026-04-12 04:50 | 40.97230 | -83.83484 | 4996 ft | 141 kts | 113° |
| 2026-04-12 04:51 | 40.96958 | -83.82221 | 4996 ft | 142 kts | 113° |
| 2026-04-12 04:51 | 40.96691 | -83.80971 | 4999 ft | 142 kts | 113° |
| 2026-04-12 04:51 | 40.96422 | -83.79717 | 4999 ft | 143 kts | 114° |
| 2026-04-12 04:51 | 40.96147 | -83.78447 | 4972 ft | 143 kts | 114° |
| 2026-04-12 04:52 | 40.95876 | -83.77193 | 4963 ft | 142 kts | 113° |
| 2026-04-12 04:52 | 40.95606 | -83.75943 | 4961 ft | 142 kts | 113° |
| 2026-04-12 04:52 | 40.95437 | -83.74630 | 4951 ft | 143 kts | 105° |
| 2026-04-12 04:52 | 40.95301 | -83.73335 | 4956 ft | 143 kts | 104° |
| 2026-04-12 04:53 | 40.95168 | -83.72021 | 4956 ft | 144 kts | 104° |
| 2026-04-12 04:53 | 40.95033 | -83.70718 | 4955 ft | 144 kts | 104° |
| 2026-04-12 04:53 | 40.94765 | -83.68094 | 4956 ft | 143 kts | 105° |
| 2026-04-12 04:54 | 40.94632 | -83.66801 | 4928 ft | 141 kts | 105° |
| 2026-04-12 04:54 | 40.94492 | -83.65504 | 4885 ft | 143 kts | 105° |
| 2026-04-12 04:54 | 40.94358 | -83.64199 | 4825 ft | 144 kts | 105° |
| 2026-04-12 04:54 | 40.94221 | -83.62885 | 4772 ft | 145 kts | 105° |
| 2026-04-12 04:55 | 40.94083 | -83.61556 | 4721 ft | 144 kts | 105° |
| 2026-04-12 04:55 | 40.93949 | -83.60246 | 4666 ft | 145 kts | 105° |
| 2026-04-12 04:55 | 40.93813 | -83.58933 | 4613 ft | 144 kts | 105° |
| 2026-04-12 04:55 | 40.93673 | -83.57610 | 4557 ft | 144 kts | 105° |
| 2026-04-12 04:56 | 40.93538 | -83.56301 | 4502 ft | 144 kts | 105° |
| 2026-04-12 04:56 | 40.93401 | -83.55000 | 4449 ft | 143 kts | 105° |
| 2026-04-12 04:56 | 40.93265 | -83.53703 | 4392 ft | 143 kts | 105° |
| 2026-04-12 04:56 | 40.93127 | -83.52389 | 4339 ft | 143 kts | 105° |
| 2026-04-12 04:57 | 40.92993 | -83.51093 | 4287 ft | 143 kts | 105° |
| 2026-04-12 04:57 | 40.92853 | -83.49781 | 4238 ft | 142 kts | 105° |
| 2026-04-12 04:57 | 40.92719 | -83.48491 | 4192 ft | 142 kts | 105° |
| 2026-04-12 04:57 | 40.92585 | -83.47201 | 4135 ft | 142 kts | 105° |
| 2026-04-12 04:58 | 40.92448 | -83.45896 | 4083 ft | 142 kts | 105° |
| 2026-04-12 04:58 | 40.92313 | -83.44609 | 4023 ft | 142 kts | 105° |
| 2026-04-12 04:58 | 40.92175 | -83.43310 | 3971 ft | 141 kts | 105° |
| 2026-04-12 04:58 | 40.92039 | -83.42027 | 3914 ft | 141 kts | 105° |
| 2026-04-12 04:59 | 40.91905 | -83.40748 | 3859 ft | 141 kts | 105° |
| 2026-04-12 04:59 | 40.91770 | -83.39472 | 3804 ft | 140 kts | 105° |
| 2026-04-12 04:59 | 40.91633 | -83.38181 | 3752 ft | 140 kts | 105° |
| 2026-04-12 04:59 | 40.91500 | -83.36913 | 3700 ft | 140 kts | 105° |
| 2026-04-12 05:00 | 40.91363 | -83.35646 | 3647 ft | 140 kts | 105° |
| 2026-04-12 05:00 | 40.91228 | -83.34367 | 3596 ft | 139 kts | 106° |
| 2026-04-12 05:00 | 40.91096 | -83.33105 | 3541 ft | 139 kts | 106° |
| 2026-04-12 05:00 | 40.90963 | -83.31846 | 3486 ft | 139 kts | 106° |
| 2026-04-12 05:01 | 40.90825 | -83.30571 | 3434 ft | 139 kts | 106° |
| 2026-04-12 05:01 | 40.90690 | -83.29315 | 3375 ft | 138 kts | 106° |
| 2026-04-12 05:01 | 40.90559 | -83.28059 | 3319 ft | 138 kts | 107° |
| 2026-04-12 05:01 | 40.90422 | -83.26807 | 3263 ft | 138 kts | 106° |
| 2026-04-12 05:02 | 40.90287 | -83.25544 | 3205 ft | 138 kts | 106° |
| 2026-04-12 05:02 | 40.90155 | -83.24303 | 3146 ft | 137 kts | 106° |
| 2026-04-12 05:02 | 40.90021 | -83.23051 | 3091 ft | 136 kts | 106° |
| 2026-04-12 05:02 | 40.89887 | -83.21815 | 3047 ft | 136 kts | 106° |
| 2026-04-12 05:03 | 40.89757 | -83.20581 | 3000 ft | 136 kts | 106° |
| 2026-04-12 05:03 | 40.89622 | -83.19335 | 2954 ft | 135 kts | 106° |
| 2026-04-12 05:03 | 40.89491 | -83.18110 | 2906 ft | 135 kts | 106° |
| 2026-04-12 05:03 | 40.89358 | -83.16891 | 2857 ft | 135 kts | 106° |
| 2026-04-12 05:04 | 40.89224 | -83.15660 | 2807 ft | 134 kts | 106° |
| 2026-04-12 05:04 | 40.89094 | -83.14448 | 2754 ft | 133 kts | 105° |
| 2026-04-12 05:04 | 40.88963 | -83.13236 | 2706 ft | 133 kts | 105° |
| 2026-04-12 05:04 | 40.88833 | -83.12015 | 2654 ft | 133 kts | 105° |
| 2026-04-12 05:05 | 40.88703 | -83.10818 | 2607 ft | 132 kts | 105° |
| 2026-04-12 05:05 | 40.88571 | -83.09605 | 2559 ft | 132 kts | 105° |
| 2026-04-12 05:05 | 40.88442 | -83.08411 | 2510 ft | 132 kts | 105° |
| 2026-04-12 05:05 | 40.88311 | -83.07198 | 2458 ft | 132 kts | 105° |
| 2026-04-12 05:06 | 40.88183 | -83.06006 | 2410 ft | 132 kts | 105° |
| 2026-04-12 05:06 | 40.88051 | -83.04810 | 2358 ft | 132 kts | 105° |
| 2026-04-12 05:06 | 40.87920 | -83.03601 | 2309 ft | 131 kts | 105° |
| 2026-04-12 05:06 | 40.87790 | -83.02412 | 2255 ft | 131 kts | 105° |
| 2026-04-12 05:07 | 40.87656 | -83.01203 | 2205 ft | 132 kts | 105° |
| 2026-04-12 05:07 | 40.87528 | -83.00014 | 2154 ft | 131 kts | 104° |
| 2026-04-12 05:07 | 40.87398 | -82.98833 | 2104 ft | 130 kts | 104° |
| 2026-04-12 05:07 | 40.87267 | -82.97633 | 2045 ft | 131 kts | 104° |
| 2026-04-12 05:08 | 40.87137 | -82.96454 | 1999 ft | 131 kts | 104° |
| 2026-04-12 05:08 | 40.87008 | -82.95269 | 1946 ft | 131 kts | 103° |
| 2026-04-12 05:08 | 40.86875 | -82.94065 | 1896 ft | 132 kts | 103° |
| 2026-04-12 05:08 | 40.86742 | -82.92854 | 1841 ft | 132 kts | 103° |
| 2026-04-12 05:09 | 40.86612 | -82.91665 | 1792 ft | 132 kts | 103° |
| 2026-04-12 05:09 | 40.86479 | -82.90459 | 1773 ft | 130 kts | 102° |
| 2026-04-12 05:09 | 40.86351 | -82.89281 | 1779 ft | 130 kts | 102° |
| 2026-04-12 05:09 | 40.86221 | -82.88098 | 1778 ft | 130 kts | 103° |
| 2026-04-12 05:10 | 40.86090 | -82.86905 | 1778 ft | 130 kts | 102° |
| 2026-04-12 05:10 | 40.85960 | -82.85729 | 1777 ft | 130 kts | 102° |
| 2026-04-12 05:10 | 40.85828 | -82.84530 | 1775 ft | 130 kts | 102° |
| 2026-04-12 05:10 | 40.85697 | -82.83348 | 1775 ft | 131 kts | 102° |
| 2026-04-12 05:11 | 40.85566 | -82.82166 | 1776 ft | 131 kts | 102° |
| 2026-04-12 05:11 | 40.85433 | -82.80962 | 1775 ft | 131 kts | 102° |
| 2026-04-12 05:11 | 40.85301 | -82.79777 | 1777 ft | 131 kts | 102° |
| 2026-04-12 05:11 | 40.85167 | -82.78572 | 1778 ft | 132 kts | 102° |
| 2026-04-12 05:12 | 40.85035 | -82.77381 | 1776 ft | 132 kts | 102° |
| 2026-04-12 05:12 | 40.84901 | -82.76175 | 1778 ft | 132 kts | 102° |
| 2026-04-12 05:12 | 40.84768 | -82.74979 | 1780 ft | 132 kts | 102° |
| 2026-04-12 05:12 | 40.84634 | -82.73783 | 1783 ft | 132 kts | 102° |
| 2026-04-12 05:13 | 40.84498 | -82.72566 | 1779 ft | 132 kts | 103° |
| 2026-04-12 05:13 | 40.84366 | -82.71407 | 1776 ft | 123 kts | 105° |
| 2026-04-12 05:13 | 40.84237 | -82.70331 | 1768 ft | 114 kts | 106° |
| 2026-04-12 05:13 | 40.84116 | -82.69317 | 1778 ft | 110 kts | 105° |
| 2026-04-12 05:14 | 40.84001 | -82.68328 | 1777 ft | 109 kts | 105° |
| 2026-04-12 05:14 | 40.83889 | -82.67345 | 1777 ft | 109 kts | 105° |
| 2026-04-12 05:14 | 40.83776 | -82.66348 | 1777 ft | 109 kts | 104° |
| 2026-04-12 05:14 | 40.83665 | -82.65359 | 1776 ft | 109 kts | 104° |
| 2026-04-12 05:15 | 40.83554 | -82.64371 | 1779 ft | 110 kts | 104° |
| 2026-04-12 05:15 | 40.83441 | -82.63372 | 1779 ft | 110 kts | 104° |
| 2026-04-12 05:15 | 40.83328 | -82.62360 | 1772 ft | 110 kts | 105° |
| 2026-04-12 05:15 | 40.83217 | -82.61394 | 1769 ft | 103 kts | 105° |
| 2026-04-12 05:16 | 40.83110 | -82.60472 | 1776 ft | 101 kts | 104° |
| 2026-04-12 05:16 | 40.83005 | -82.59556 | 1776 ft | 101 kts | 104° |
| 2026-04-12 05:16 | 40.82902 | -82.58640 | 1774 ft | 101 kts | 104° |
| 2026-04-12 05:16 | 40.82800 | -82.57724 | 1774 ft | 100 kts | 104° |
| 2026-04-12 05:17 | 40.82698 | -82.56815 | 1773 ft | 100 kts | 104° |
| 2026-04-12 05:17 | 40.82597 | -82.55925 | 1769 ft | 95 kts | 105° |
| 2026-04-12 05:17 | 40.82500 | -82.55077 | 1779 ft | 92 kts | 105° |
| 2026-04-12 05:17 | 40.82375 | -82.54260 | 1792 ft | 86 kts | 110° |
| 2026-04-12 05:18 | 40.82229 | -82.53517 | 1774 ft | 83 kts | 112° |
| 2026-04-12 05:18 | 40.82057 | -82.52807 | 1732 ft | 78 kts | 104° |
| 2026-04-12 05:18 | 40.81911 | -82.52151 | 1602 ft | 68 kts | 106° |
| 2026-04-12 05:18 | 40.81773 | -82.51614 | 1452 ft | 53 kts | 107° |
| 2026-04-12 05:19 | 40.81671 | -82.51299 | 1355 ft | 19 kts | 114° |
| 2026-04-12 05:19 | 40.81666 | -82.51268 | 1295 ft | 0 kts | 131° |
| 2026-04-12 05:19 | 40.81662 | -82.51265 | 1295 ft | 0 kts | 219° |